createdAt,value
2023-05-05T00:03:09.948Z,24.8
2023-05-05T00:08:40.347Z,24.8
2023-05-05T00:14:10.793Z,24.8
2023-05-05T00:19:41.738Z,24.8
2023-05-05T00:25:12.003Z,24.8
2023-05-05T00:30:42.492Z,24.8
2023-05-05T00:36:13.072Z,24.8
2023-05-05T00:41:43.559Z,24.8
2023-05-05T00:47:14.135Z,24.8
2023-05-05T00:52:44.613Z,24.8
2023-05-05T00:58:15.119Z,24.8
2023-05-05T01:03:45.848Z,24.8
2023-05-05T01:09:16.205Z,24.8
2023-05-05T01:14:46.670Z,24.8
2023-05-05T01:20:17.274Z,24.8
2023-05-05T01:25:47.822Z,24.8
2023-05-05T01:31:17.344Z,24.8
2023-05-05T01:36:47.782Z,24.8
2023-05-05T01:42:18.283Z,24.8
2023-05-05T01:47:49.062Z,24.8
2023-05-05T01:53:19.475Z,24.8
2023-05-05T01:58:50.055Z,24.8
2023-05-05T02:04:20.517Z,24.8
2023-05-05T02:09:51.066Z,24.8
2023-05-05T02:15:21.657Z,24.7
2023-05-05T02:26:22.655Z,24.7
2023-05-05T02:31:53.303Z,24.8
2023-05-05T02:37:23.792Z,24.7
2023-05-05T02:42:54.358Z,24.8
2023-05-05T02:48:24.872Z,24.7
2023-05-05T02:53:55.338Z,24.7
2023-05-05T02:59:25.939Z,24.7
2023-05-05T03:04:56.426Z,24.7
2023-05-05T03:10:26.875Z,24.8
2023-05-05T03:15:56.420Z,24.7
2023-05-05T03:21:26.839Z,24.7
2023-05-05T03:26:57.335Z,24.7
2023-05-05T03:32:27.914Z,24.7
2023-05-05T03:37:58.383Z,24.7
2023-05-05T03:43:28.971Z,24.7
2023-05-05T03:48:59.492Z,24.7
2023-05-05T03:54:29.978Z,24.7
2023-05-05T04:00:00.597Z,24.7
2023-05-05T04:05:31.054Z,24.7
2023-05-05T04:11:01.519Z,24.7
2023-05-05T04:16:32.201Z,24.7
2023-05-05T04:22:02.651Z,24.8
2023-05-05T04:27:33.197Z,24.8
2023-05-05T04:33:03.738Z,24.8
2023-05-05T04:38:34.169Z,24.8
2023-05-05T04:44:04.709Z,24.9
2023-05-05T04:49:35.216Z,24.9
2023-05-05T04:55:05.657Z,24.9
2023-05-05T05:00:36.299Z,24.9
2023-05-05T05:06:06.755Z,24.9
2023-05-05T05:11:37.234Z,24.9
2023-05-05T05:17:06.733Z,24.9
2023-05-05T05:22:37.208Z,24.9
2023-05-05T05:28:10.608Z,24.9
2023-05-05T05:33:38.286Z,24.9
2023-05-05T05:39:08.765Z,24.9
2023-05-05T05:44:39.356Z,24.9
2023-05-05T05:50:10.010Z,24.9
2023-05-05T05:55:40.411Z,24.9
2023-05-05T06:01:10.983Z,24.9
2023-05-05T06:06:41.467Z,24.9
2023-05-05T06:12:12.094Z,24.9
2023-05-05T06:17:42.786Z,24.9
2023-05-05T06:23:13.164Z,24.9
2023-05-05T06:28:43.913Z,24.9
2023-05-05T06:34:14.398Z,24.9
2023-05-05T06:39:44.849Z,25
2023-05-05T06:45:15.546Z,25
2023-05-05T06:50:45.914Z,25
2023-05-05T06:56:16.799Z,25
2023-05-05T07:01:47.008Z,25
2023-05-05T07:07:17.480Z,25
2023-05-05T07:12:48.139Z,25.1
2023-05-05T07:18:18.545Z,25.1
2023-05-05T07:23:49.021Z,25.1
2023-05-05T07:29:18.524Z,25.2
2023-05-05T07:34:48.964Z,25.2
2023-05-05T07:40:19.480Z,25.2
2023-05-05T07:45:50.106Z,25.3
2023-05-05T07:51:20.507Z,25.3
2023-05-05T07:56:51.054Z,25.3
2023-05-05T08:02:20.598Z,25.3
2023-05-05T08:07:51.024Z,25.3
2023-05-05T08:13:21.624Z,25.4
2023-05-05T08:18:52.094Z,25.4
2023-05-05T08:24:22.554Z,25.4
2023-05-05T08:29:53.129Z,25.5
2023-05-05T08:35:23.616Z,25.5
2023-05-05T08:40:54.297Z,25.5
2023-05-05T08:46:24.794Z,25.6
2023-05-05T08:51:55.245Z,25.6
2023-05-05T08:57:24.742Z,25.6
2023-05-05T09:02:55.292Z,25.7
2023-05-05T09:08:25.683Z,25.7
2023-05-05T09:13:55.145Z,25.7
2023-05-05T09:19:25.625Z,25.8
2023-05-05T09:24:56.115Z,25.8
2023-05-05T09:41:26.586Z,25.9
2023-05-05T09:46:57.143Z,26
2023-05-05T09:53:33.875Z,26
2023-05-05T09:59:03.608Z,26.1
2023-05-05T10:04:34.095Z,26.1
2023-05-05T10:10:03.599Z,26.2
2023-05-05T10:15:34.367Z,26.2
2023-05-05T10:21:04.831Z,26.2
2023-05-05T10:26:35.304Z,26.1
2023-05-05T10:32:21.367Z,26.1
2023-05-05T10:38:41.694Z,26
2023-05-05T10:44:11.237Z,25.9
2023-05-05T10:49:41.684Z,25.9
2023-05-05T10:55:12.179Z,25.8
2023-05-05T11:00:41.673Z,25.8
2023-05-05T11:06:12.141Z,25.8
2023-05-05T11:11:42.612Z,25.8
2023-05-05T11:17:13.210Z,25.8
2023-05-05T11:39:14.109Z,25.7
2023-05-05T11:44:43.741Z,25.7
2023-05-05T11:50:14.212Z,25.7
2023-05-05T11:55:44.712Z,25.7
2023-05-05T12:01:14.204Z,25.6
2023-05-05T12:06:44.669Z,25.6
2023-05-05T12:12:15.161Z,25.6
2023-05-05T12:17:44.852Z,25.6
2023-05-05T12:23:15.105Z,25.6
2023-05-05T12:28:45.840Z,25.6
2023-05-05T12:34:16.332Z,25.6
2023-05-05T12:45:17.404Z,25.6
2023-05-05T12:50:48.027Z,25.6
2023-05-05T12:56:18.594Z,25.6
2023-05-05T13:01:49.289Z,25.7
2023-05-05T13:07:18.564Z,25.7
2023-05-05T13:12:49.071Z,25.7
2023-05-05T13:19:25.610Z,25.6
2023-05-05T13:24:56.192Z,25.6
2023-05-05T13:35:57.289Z,25.7
2023-05-05T13:41:26.789Z,25.7
2023-05-05T13:46:57.309Z,25.8
2023-05-05T13:52:29.017Z,25.8
2023-05-05T13:57:57.222Z,25.8
2023-05-05T14:03:27.727Z,25.8
2023-05-05T14:08:58.166Z,25.8
2023-05-05T14:14:28.761Z,25.8
2023-05-05T14:19:59.232Z,25.9
2023-05-05T14:25:28.730Z,25.8
2023-05-05T14:30:59.209Z,25.8
2023-05-05T14:36:29.671Z,25.8
2023-05-05T14:41:59.168Z,25.8
2023-05-05T14:47:29.688Z,25.8
2023-05-05T14:53:00.134Z,25.9
2023-05-05T14:58:29.649Z,25.9
2023-05-05T15:04:00.220Z,25.9
2023-05-05T15:09:29.591Z,25.9
2023-05-05T15:15:00.064Z,25.9
2023-05-05T15:20:30.546Z,25.9
2023-05-05T15:26:01.047Z,25.9
2023-05-05T15:31:31.659Z,25.9
2023-05-05T15:37:02.112Z,25.8
2023-05-05T15:42:32.701Z,25.6
2023-05-05T15:48:03.170Z,25.5
2023-05-05T15:53:33.656Z,25.4
2023-05-05T15:59:04.227Z,25.4
2023-05-05T16:10:05.176Z,25
2023-05-05T16:15:35.844Z,25.1
2023-05-05T16:21:06.385Z,25.2
2023-05-05T16:26:36.845Z,25.3
2023-05-05T16:32:07.409Z,25.4
2023-05-05T16:37:38.000Z,25.5
2023-05-05T16:43:08.466Z,25.5
2023-05-05T16:48:38.951Z,25.6
2023-05-05T16:54:09.524Z,25.6
2023-05-05T16:59:40.040Z,25.6
2023-05-05T17:05:09.809Z,25.6
2023-05-05T17:10:40.091Z,25.6
2023-05-05T17:16:10.561Z,25.7
2023-05-05T17:21:41.151Z,25.6
2023-05-05T17:27:11.636Z,25.6
2023-05-05T17:32:42.205Z,25.6
2023-05-05T17:38:11.584Z,25.6
2023-05-05T17:43:42.080Z,25.6
2023-05-05T17:49:11.554Z,25.6
2023-05-05T17:54:42.047Z,25.6
2023-05-05T18:00:12.519Z,25.6
2023-05-05T18:05:43.097Z,25.6
2023-05-05T18:11:13.685Z,25.6
2023-05-05T18:22:13.656Z,25.5
2023-05-05T18:27:44.130Z,25.5
2023-05-05T18:33:14.610Z,25.5
2023-05-05T18:38:45.185Z,25.5
2023-05-05T18:44:15.687Z,25.5
2023-05-05T18:49:46.133Z,25.5
2023-05-05T18:55:16.753Z,25.5
2023-05-05T19:00:47.226Z,25.5
2023-05-05T19:06:17.667Z,25.5
2023-05-05T19:11:47.163Z,25.4
2023-05-05T19:17:17.624Z,25.4
2023-05-05T19:22:48.133Z,25.4
2023-05-05T19:28:18.712Z,25.4
2023-05-05T19:33:49.169Z,25.4
2023-05-05T19:39:19.936Z,25.5
2023-05-05T19:44:50.321Z,25.5
2023-05-05T19:50:20.801Z,25.5
2023-05-05T19:55:51.388Z,25.5
2023-05-05T20:01:22.009Z,25.5
2023-05-05T20:06:52.518Z,25.5
2023-05-05T20:12:22.989Z,25.4
2023-05-05T20:17:53.657Z,25.5
2023-05-05T20:23:24.059Z,25.4
2023-05-05T20:28:54.519Z,25.4
2023-05-05T20:34:25.193Z,25.4
2023-05-05T20:39:55.613Z,25.4
2023-05-05T20:45:26.050Z,25.4
2023-05-05T20:50:56.653Z,25.4
2023-05-05T20:56:27.151Z,25.4
2023-05-05T21:01:57.867Z,25.4
2023-05-05T21:07:28.284Z,25.4
2023-05-05T21:12:58.820Z,25.3
2023-05-05T21:18:28.260Z,25.4
2023-05-05T21:23:58.759Z,25.3
2023-05-05T21:29:29.239Z,25.3
2023-05-05T21:34:58.714Z,25.3
2023-05-05T21:40:29.209Z,25.3
2023-05-05T21:45:58.731Z,25.3
2023-05-05T21:51:29.175Z,25.3
2023-05-05T21:56:59.654Z,25.3
2023-05-05T22:03:36.423Z,25.3
2023-05-05T22:09:06.783Z,25.3
2023-05-05T22:14:37.407Z,25.3
2023-05-05T22:20:07.065Z,25.3
2023-05-05T22:25:37.385Z,25.3
2023-05-05T22:31:06.871Z,25.3
2023-05-05T22:36:37.330Z,25.3
2023-05-05T22:42:08.030Z,25.3
2023-05-05T22:47:38.314Z,25.3
2023-05-05T22:53:08.862Z,25.3
2023-05-05T22:58:39.328Z,25.3
2023-05-05T23:04:09.945Z,25.3
2023-05-05T23:09:40.406Z,25.2
2023-05-05T23:15:11.404Z,25.2
2023-05-05T23:20:41.609Z,25.3
2023-05-05T23:26:12.072Z,25.2
2023-05-05T23:31:42.563Z,25.2
2023-05-05T23:37:13.133Z,25.2
2023-05-05T23:42:43.737Z,25.2
2023-05-05T23:48:13.218Z,25.2
2023-05-05T23:53:43.730Z,25.2
2023-05-05T23:59:13.186Z,25.2
